createdAt,value
2019-05-16T00:02:18.425Z,10.90
2019-05-16T00:04:48.217Z,10.90
2019-05-16T00:07:19.168Z,10.90
2019-05-16T00:09:48.372Z,10.70
2019-05-16T00:12:18.379Z,10.70
2019-05-16T00:14:48.815Z,10.80
2019-05-16T00:17:18.882Z,10.80
2019-05-16T00:19:48.396Z,10.80
2019-05-16T00:22:18.188Z,10.90
2019-05-16T00:24:48.744Z,10.90
2019-05-16T00:27:18.579Z,11.00
2019-05-16T00:29:48.759Z,10.90
2019-05-16T00:32:18.953Z,11.00
2019-05-16T00:34:47.764Z,11.00
2019-05-16T00:37:18.016Z,11.10
2019-05-16T00:39:48.110Z,11.10
2019-05-16T00:42:18.052Z,11.00
2019-05-16T00:44:47.926Z,11.00
2019-05-16T00:47:17.840Z,10.90
2019-05-16T00:49:48.052Z,11.00
2019-05-16T00:52:18.387Z,11.20
2019-05-16T00:54:48.665Z,11.20
2019-05-16T00:57:18.810Z,11.20
2019-05-16T00:59:48.548Z,11.10
2019-05-16T01:02:18.150Z,11.00
2019-05-16T01:04:48.564Z,11.00
2019-05-16T01:07:18.526Z,11.20
2019-05-16T01:09:48.655Z,11.20
2019-05-16T01:12:17.815Z,11.10
2019-05-16T01:14:47.929Z,11.10
2019-05-16T01:17:18.203Z,11.10
2019-05-16T01:19:48.324Z,11.10
2019-05-16T01:22:18.557Z,11.20
2019-05-16T01:24:49.080Z,11.30
2019-05-16T01:27:18.464Z,11.20
2019-05-16T01:29:47.757Z,11.10
2019-05-16T01:32:15.803Z,11.20
2019-05-16T01:34:43.932Z,11.10
2019-05-16T01:37:13.011Z,11.10
2019-05-16T01:39:41.638Z,11.10
2019-05-16T01:42:09.797Z,11.00
2019-05-16T01:44:38.313Z,11.00
2019-05-16T01:47:08.849Z,11.00
2019-05-16T01:49:38.148Z,11.10
2019-05-16T01:52:08.491Z,11.00
2019-05-16T01:54:38.667Z,11.10
2019-05-16T01:57:08.148Z,11.20
2019-05-16T01:59:37.978Z,11.20
2019-05-16T02:02:08.418Z,11.10
2019-05-16T02:04:40.051Z,11.10
2019-05-16T02:07:08.698Z,11.10
2019-05-16T02:09:38.458Z,10.90
2019-05-16T02:12:10.411Z,10.80
2019-05-16T02:14:38.811Z,10.80
2019-05-16T02:17:10.885Z,11.00
2019-05-16T02:19:38.526Z,11.10
2019-05-16T02:22:08.759Z,11.20
2019-05-16T02:24:38.829Z,11.20
2019-05-16T02:27:09.535Z,11.30
2019-05-16T02:29:39.964Z,11.30
2019-05-16T02:32:11.433Z,11.30
2019-05-16T02:34:41.361Z,11.30
2019-05-16T02:37:20.265Z,11.30
2019-05-16T02:39:41.031Z,11.50
2019-05-16T02:42:11.684Z,11.50
2019-05-16T02:44:41.303Z,11.40
2019-05-16T02:47:10.768Z,11.20
2019-05-16T02:49:41.970Z,11.20
2019-05-16T02:52:10.877Z,11.00
2019-05-16T02:54:41.162Z,10.90
2019-05-16T02:57:11.194Z,10.80
2019-05-16T02:59:41.526Z,10.70
2019-05-16T03:02:11.423Z,10.70
2019-05-16T03:04:44.024Z,10.80
2019-05-16T03:07:13.485Z,10.90
2019-05-16T03:09:42.342Z,11.00
2019-05-16T03:12:10.889Z,10.90
2019-05-16T03:14:41.885Z,10.70
2019-05-16T03:17:12.034Z,10.60
2019-05-16T03:19:43.067Z,10.60
2019-05-16T03:22:15.149Z,10.70
2019-05-16T03:24:43.955Z,10.70
2019-05-16T03:27:12.475Z,10.70
2019-05-16T03:29:41.806Z,10.80
2019-05-16T03:32:14.143Z,10.80
2019-05-16T03:34:43.961Z,10.70
2019-05-16T03:37:14.027Z,10.80
2019-05-16T03:39:40.993Z,10.60
2019-05-16T03:42:12.443Z,10.70
2019-05-16T03:44:41.114Z,10.70
2019-05-16T03:47:11.303Z,10.70
2019-05-16T03:49:42.153Z,10.60
2019-05-16T03:52:11.330Z,10.60
2019-05-16T03:54:41.993Z,10.50
2019-05-16T03:57:11.520Z,10.60
2019-05-16T03:59:40.873Z,10.70
2019-05-16T04:02:10.843Z,10.70
2019-05-16T04:04:42.176Z,10.50
2019-05-16T04:07:11.331Z,10.50
2019-05-16T04:09:41.213Z,10.50
2019-05-16T04:12:10.810Z,10.40
2019-05-16T04:14:40.990Z,10.20
2019-05-16T04:17:10.957Z,10.20
2019-05-16T04:19:41.514Z,10.30
2019-05-16T04:22:13.564Z,10.30
2019-05-16T04:24:41.965Z,10.30
2019-05-16T04:27:12.058Z,10.20
2019-05-16T04:29:40.814Z,10.20
2019-05-16T04:32:11.011Z,10.10
2019-05-16T04:34:41.551Z,10.20
2019-05-16T04:37:11.488Z,10.10
2019-05-16T04:39:41.489Z,10.00
2019-05-16T04:42:11.091Z,10.10
2019-05-16T04:44:41.787Z,10.30
2019-05-16T04:47:11.038Z,10.30
2019-05-16T04:49:41.154Z,10.30
2019-05-16T04:52:11.121Z,10.30
2019-05-16T04:54:41.891Z,10.20
2019-05-16T04:57:11.828Z,10.30
2019-05-16T04:59:41.733Z,10.30
2019-05-16T05:02:11.884Z,10.40
2019-05-16T05:04:41.277Z,10.40
2019-05-16T05:07:11.131Z,10.40
2019-05-16T05:09:40.835Z,10.30
2019-05-16T05:12:11.175Z,10.30
2019-05-16T05:14:41.328Z,10.20
2019-05-16T05:17:10.640Z,10.20
2019-05-16T05:19:41.175Z,10.20
2019-05-16T05:22:10.350Z,10.20
2019-05-16T05:24:37.864Z,10.00
2019-05-16T05:27:05.969Z,10.00
2019-05-16T05:29:34.026Z,10.20
2019-05-16T05:32:04.398Z,10.20
2019-05-16T05:34:32.356Z,10.40
2019-05-16T05:37:00.467Z,10.20
2019-05-16T05:39:30.282Z,10.20
2019-05-16T05:42:00.106Z,10.30
2019-05-16T05:44:30.549Z,10.60
2019-05-16T05:47:00.305Z,10.70
2019-05-16T05:49:30.157Z,10.80
2019-05-16T05:51:57.762Z,10.80
2019-05-16T05:54:25.993Z,10.90
2019-05-16T05:56:54.014Z,10.90
2019-05-16T05:59:22.017Z,10.80
2019-05-16T06:01:51.625Z,10.90
2019-05-16T06:04:20.137Z,10.80
2019-05-16T06:06:50.379Z,10.70
2019-05-16T06:09:26.246Z,10.70
2019-05-16T06:11:50.033Z,10.70
2019-05-16T06:14:17.766Z,10.50
2019-05-16T06:16:45.784Z,10.60
2019-05-16T06:19:14.073Z,10.50
2019-05-16T06:21:44.392Z,10.70
2019-05-16T06:24:12.302Z,10.70
2019-05-16T06:26:40.229Z,10.70
2019-05-16T06:29:10.404Z,10.50
2019-05-16T06:31:40.615Z,10.70
2019-05-16T06:34:15.019Z,10.70
2019-05-16T06:36:40.509Z,10.80
2019-05-16T06:39:11.449Z,10.80
2019-05-16T06:41:39.829Z,10.70
2019-05-16T06:44:10.619Z,10.90
2019-05-16T06:46:54.334Z,11.00
2019-05-16T06:49:10.363Z,10.90
2019-05-16T06:51:39.781Z,11.10
2019-05-16T06:54:10.113Z,11.10
2019-05-16T06:56:40.147Z,11.20
2019-05-16T06:59:10.487Z,11.30
2019-05-16T07:01:40.451Z,11.30
2019-05-16T07:04:10.499Z,11.50
2019-05-16T07:06:54.707Z,11.70
2019-05-16T07:09:10.536Z,11.80
2019-05-16T07:11:39.928Z,11.90
2019-05-16T07:14:10.623Z,12.20
2019-05-16T07:16:40.499Z,12.40
2019-05-16T07:19:10.436Z,12.50
2019-05-16T07:21:39.675Z,12.40
2019-05-16T07:24:08.029Z,12.40
2019-05-16T07:26:36.195Z,12.50
2019-05-16T07:29:04.592Z,12.70
2019-05-16T07:31:33.190Z,12.70
2019-05-16T07:34:01.455Z,12.60
2019-05-16T07:36:31.498Z,12.80
2019-05-16T07:39:00.988Z,12.90
2019-05-16T07:41:31.058Z,12.80
2019-05-16T07:44:00.916Z,12.60
2019-05-16T07:46:31.534Z,12.60
2019-05-16T07:49:01.168Z,12.40
2019-05-16T07:51:31.053Z,12.50
2019-05-16T07:53:59.994Z,12.30
2019-05-16T07:56:30.682Z,12.30
2019-05-16T07:59:00.750Z,12.50
2019-05-16T08:01:30.751Z,12.30
2019-05-16T08:04:00.033Z,12.30
2019-05-16T08:06:30.940Z,12.20
2019-05-16T08:09:00.236Z,12.10
2019-05-16T08:11:30.498Z,12.20
2019-05-16T08:14:00.946Z,12.20
2019-05-16T08:16:30.586Z,12.10
2019-05-16T08:19:00.861Z,12.10
2019-05-16T08:21:30.873Z,11.70
2019-05-16T08:24:05.791Z,11.70
2019-05-16T08:26:32.355Z,11.70
2019-05-16T08:29:02.058Z,11.50
2019-05-16T08:31:31.766Z,11.60
2019-05-16T08:34:01.048Z,11.70
2019-05-16T08:36:31.286Z,11.60
2019-05-16T08:39:01.105Z,11.50
2019-05-16T08:41:31.647Z,11.50
2019-05-16T08:44:01.121Z,11.40
2019-05-16T08:49:01.072Z,11.50
2019-05-16T08:51:33.405Z,11.40
2019-05-16T08:54:01.532Z,11.50
2019-05-16T08:56:31.828Z,11.70
2019-05-16T08:59:02.726Z,11.90
2019-05-16T09:01:35.045Z,11.90
2019-05-16T09:06:31.983Z,11.80
2019-05-16T09:09:12.298Z,12.00
2019-05-16T09:10:31.604Z,11.40
2019-05-16T09:10:34.679Z,11.90
2019-05-16T09:11:40.462Z,12.20
2019-05-16T09:14:01.398Z,12.50
2019-05-16T09:16:29.566Z,12.70
2019-05-16T09:18:58.224Z,12.70
2019-05-16T09:21:27.586Z,12.90
2019-05-16T09:24:03.840Z,12.90
2019-05-16T09:26:27.739Z,13.30
2019-05-16T09:28:57.684Z,13.50
2019-05-16T09:31:27.519Z,13.40
2019-05-16T09:33:56.774Z,13.50
2019-05-16T09:36:27.782Z,13.40
2019-05-16T09:38:57.729Z,13.60
2019-05-16T09:41:28.771Z,13.40
2019-05-16T09:43:58.779Z,13.30
2019-05-16T09:46:27.581Z,13.30
2019-05-16T09:49:15.287Z,13.70
2019-05-16T09:51:27.190Z,13.70
2019-05-16T09:53:56.685Z,13.80
2019-05-16T09:56:26.986Z,13.80
2019-05-16T09:58:57.496Z,13.90
2019-05-16T10:01:27.620Z,14.10
2019-05-16T10:03:55.314Z,14.30
2019-05-16T10:06:23.678Z,14.50
2019-05-16T10:08:51.852Z,14.70
2019-05-16T10:11:20.121Z,14.80
2019-05-16T10:13:48.748Z,15.00
2019-05-16T10:16:17.081Z,15.00
2019-05-16T10:18:47.550Z,15.20
2019-05-16T10:21:19.913Z,15.40
2019-05-16T10:23:46.994Z,15.30
2019-05-16T10:26:17.223Z,15.10
2019-05-16T10:28:46.802Z,15.30
2019-05-16T10:31:17.613Z,15.40
2019-05-16T10:33:47.823Z,15.30
2019-05-16T10:36:17.247Z,15.20
2019-05-16T10:38:48.473Z,15.30
2019-05-16T10:41:15.982Z,15.00
2019-05-16T10:43:44.116Z,14.80
2019-05-16T10:46:12.410Z,14.70
2019-05-16T10:48:40.548Z,14.50
2019-05-16T10:51:08.798Z,14.60
2019-05-16T10:54:00.619Z,14.60
2019-05-16T10:56:07.728Z,14.30
2019-05-16T10:58:43.901Z,14.30
2019-05-16T11:01:19.505Z,14.20
2019-05-16T11:03:36.287Z,14.00
2019-05-16T11:06:06.704Z,14.10
2019-05-16T11:08:37.110Z,14.20
2019-05-16T11:11:06.651Z,13.90
2019-05-16T11:13:36.919Z,14.00
2019-05-16T11:16:04.181Z,14.10
2019-05-16T11:18:32.109Z,14.20
2019-05-16T11:21:00.146Z,14.10
2019-05-16T11:23:31.289Z,14.40
2019-05-16T11:25:58.566Z,14.50
2019-05-16T11:28:27.227Z,14.80
2019-05-16T11:31:02.199Z,15.00
2019-05-16T11:33:28.129Z,14.80
2019-05-16T11:35:55.495Z,14.90
2019-05-16T11:38:23.815Z,14.60
2019-05-16T11:40:51.934Z,14.50
2019-05-16T11:43:21.842Z,14.10
2019-05-16T11:45:49.787Z,14.00
2019-05-16T11:48:17.911Z,14.00
2019-05-16T11:50:48.066Z,14.30
2019-05-16T11:53:17.542Z,14.40
2019-05-16T11:55:54.561Z,14.40
2019-05-16T11:58:18.012Z,14.30
2019-05-16T12:00:48.206Z,14.60
2019-05-16T12:03:17.132Z,14.70
2019-05-16T12:05:48.309Z,14.90
2019-05-16T12:08:17.359Z,14.60
2019-05-16T12:10:47.198Z,14.70
2019-05-16T12:13:25.162Z,14.60
2019-05-16T12:15:45.294Z,14.60
2019-05-16T12:18:13.213Z,14.60
2019-05-16T12:20:41.130Z,14.70
2019-05-16T12:23:09.289Z,14.30
2019-05-16T12:25:37.550Z,14.10
2019-05-16T12:28:08.165Z,14.00
2019-05-16T12:30:37.706Z,13.70
2019-05-16T12:33:07.305Z,13.60
2019-05-16T12:35:36.891Z,13.30
2019-05-16T12:38:08.069Z,13.10
2019-05-16T12:40:37.669Z,13.00
2019-05-16T12:43:07.775Z,12.90
2019-05-16T12:45:38.641Z,12.90
2019-05-16T12:48:07.009Z,13.00
2019-05-16T12:50:38.341Z,13.00
2019-05-16T12:53:07.756Z,13.00
2019-05-16T12:55:36.866Z,13.00
2019-05-16T12:58:12.497Z,13.00
2019-05-16T13:00:37.022Z,12.90
2019-05-16T13:03:07.133Z,13.00
2019-05-16T13:05:37.581Z,13.00
2019-05-16T13:08:05.674Z,13.20
2019-05-16T13:10:33.720Z,13.30
2019-05-16T13:13:01.746Z,13.40
2019-05-16T13:15:29.794Z,13.60
2019-05-16T13:17:57.723Z,13.60
2019-05-16T13:20:26.663Z,13.60
2019-05-16T13:22:56.722Z,13.50
2019-05-16T13:25:27.134Z,13.40
2019-05-16T13:27:54.771Z,13.40
2019-05-16T13:30:22.970Z,13.50
2019-05-16T13:32:50.894Z,13.20
2019-05-16T13:35:19.004Z,13.20
2019-05-16T13:37:47.653Z,13.30
2019-05-16T13:40:17.082Z,13.30
2019-05-16T13:42:47.757Z,13.20
2019-05-16T13:45:17.690Z,13.20
2019-05-16T13:47:48.101Z,13.30
2019-05-16T13:50:16.823Z,13.30
2019-05-16T13:52:47.791Z,13.30
2019-05-16T13:55:16.723Z,13.20
2019-05-16T13:57:44.923Z,13.20
2019-05-16T14:00:13.555Z,13.30
2019-05-16T14:02:41.530Z,13.50
2019-05-16T14:05:09.811Z,13.40
2019-05-16T14:07:37.979Z,13.30
2019-05-16T14:10:06.497Z,13.50
2019-05-16T14:12:36.658Z,13.40
2019-05-16T14:15:08.026Z,13.60
2019-05-16T14:17:37.076Z,13.60
2019-05-16T14:20:13.894Z,13.70
2019-05-16T14:22:36.055Z,13.50
2019-05-16T14:25:06.887Z,13.60
2019-05-16T14:27:34.299Z,13.70
2019-05-16T14:30:02.751Z,13.70
2019-05-16T14:32:30.887Z,13.90
2019-05-16T14:34:59.166Z,13.80
2019-05-16T14:37:27.217Z,13.80
2019-05-16T14:39:57.812Z,13.60
2019-05-16T14:42:28.076Z,13.80
2019-05-16T14:45:06.573Z,13.60
2019-05-16T14:47:27.169Z,13.60
2019-05-16T14:49:55.529Z,13.50
2019-05-16T14:52:23.512Z,13.50
2019-05-16T14:54:51.812Z,13.60
2019-05-16T14:57:19.882Z,13.40
2019-05-16T14:59:47.798Z,13.40
2019-05-16T15:02:18.121Z,13.30
2019-05-16T15:04:49.288Z,13.30
2019-05-16T15:07:19.421Z,13.20
2019-05-16T15:09:47.116Z,13.30
2019-05-16T15:12:17.296Z,13.30
2019-05-16T15:14:45.253Z,13.30
2019-05-16T15:17:13.348Z,13.10
2019-05-16T15:19:41.434Z,13.20
2019-05-16T15:22:09.430Z,13.30
2019-05-16T15:24:37.349Z,13.20
2019-05-16T15:27:07.935Z,13.20
2019-05-16T15:29:37.601Z,13.20
2019-05-16T15:32:07.019Z,13.10
2019-05-16T15:34:37.820Z,13.20
2019-05-16T15:37:07.902Z,13.10
2019-05-16T15:39:37.469Z,13.20
2019-05-16T15:42:08.159Z,13.20
2019-05-16T15:44:36.862Z,13.10
2019-05-16T15:47:07.379Z,13.10
2019-05-16T15:49:37.542Z,13.00
2019-05-16T15:52:07.266Z,13.00
2019-05-16T15:54:37.650Z,13.00
2019-05-16T15:57:06.742Z,13.00
2019-05-16T15:59:37.561Z,13.10
2019-05-16T16:02:07.195Z,13.20
2019-05-16T16:04:37.330Z,13.10
2019-05-16T16:07:07.625Z,13.10
2019-05-16T16:09:37.876Z,13.30
2019-05-16T16:12:08.180Z,13.10
2019-05-16T16:14:36.770Z,13.00
2019-05-16T16:17:06.672Z,13.00
2019-05-16T16:19:37.035Z,13.00
2019-05-16T16:22:07.286Z,12.90
2019-05-16T16:24:35.505Z,13.00
2019-05-16T16:27:03.861Z,13.00
2019-05-16T16:29:33.268Z,13.00
2019-05-16T16:32:01.845Z,13.10
2019-05-16T16:34:29.809Z,13.10
2019-05-16T16:36:57.736Z,13.10
2019-05-16T16:39:26.823Z,12.90
2019-05-16T16:41:56.931Z,13.00
2019-05-16T16:44:27.425Z,12.90
2019-05-16T16:46:57.348Z,12.80
2019-05-16T16:49:27.844Z,12.70
2019-05-16T16:51:57.213Z,12.70
2019-05-16T16:54:27.563Z,12.60
2019-05-16T16:56:55.537Z,12.50
2019-05-16T16:59:23.453Z,12.40
2019-05-16T17:01:51.569Z,12.20
2019-05-16T17:04:19.810Z,12.20
2019-05-16T17:06:47.925Z,12.40
2019-05-16T17:09:16.266Z,12.30
2019-05-16T17:11:46.548Z,12.40
2019-05-16T17:14:17.167Z,12.30
2019-05-16T17:16:47.239Z,12.30
2019-05-16T17:19:14.685Z,12.20
2019-05-16T17:21:51.578Z,12.10
2019-05-16T17:24:12.954Z,12.20
2019-05-16T17:26:40.965Z,12.00
2019-05-16T17:29:09.058Z,12.10
2019-05-16T17:31:36.969Z,12.10
2019-05-16T17:34:08.117Z,12.10
2019-05-16T17:36:37.093Z,12.00
2019-05-16T17:39:05.589Z,11.80
2019-05-16T17:41:33.711Z,11.80
2019-05-16T17:44:01.829Z,11.80
2019-05-16T17:46:36.858Z,11.90
2019-05-16T17:48:59.635Z,11.70
2019-05-16T17:51:27.550Z,11.90
2019-05-16T17:53:57.099Z,12.00
2019-05-16T17:56:26.476Z,11.70
2019-05-16T17:58:56.791Z,11.60
2019-05-16T18:01:24.646Z,11.50
2019-05-16T18:03:52.917Z,11.50
2019-05-16T18:06:21.116Z,11.60
2019-05-16T18:08:49.615Z,11.40
2019-05-16T18:11:17.989Z,11.30
2019-05-16T18:13:46.496Z,11.10
2019-05-16T18:16:14.752Z,11.10
2019-05-16T18:18:43.364Z,11.20
2019-05-16T18:21:11.782Z,11.20
2019-05-16T18:23:40.242Z,11.20
2019-05-16T18:26:08.617Z,11.20
2019-05-16T18:28:36.676Z,11.00
2019-05-16T18:31:04.977Z,11.00
2019-05-16T18:33:33.416Z,10.90
2019-05-16T18:36:01.667Z,10.90
2019-05-16T18:38:30.058Z,11.00
2019-05-16T18:40:59.125Z,11.10
2019-05-16T18:43:27.984Z,11.10
2019-05-16T18:45:56.713Z,11.10
2019-05-16T18:48:27.035Z,11.10
2019-05-16T18:50:57.761Z,11.10
2019-05-16T18:53:26.998Z,11.00
2019-05-16T18:55:57.065Z,11.00
2019-05-16T18:58:27.053Z,11.00
2019-05-16T19:00:55.495Z,10.70
2019-05-16T19:03:23.750Z,10.90
2019-05-16T19:05:51.662Z,11.00
2019-05-16T19:08:19.810Z,10.80
2019-05-16T19:10:47.822Z,10.80
2019-05-16T19:13:16.867Z,10.90
2019-05-16T19:15:46.574Z,10.90
2019-05-16T19:18:17.085Z,10.70
2019-05-16T19:20:46.013Z,10.60
2019-05-16T19:23:17.513Z,10.70
2019-05-16T19:25:47.386Z,10.40
2019-05-16T19:28:15.641Z,10.50
2019-05-16T19:30:46.399Z,10.50
2019-05-16T19:33:14.393Z,10.60
2019-05-16T19:35:43.033Z,10.50
2019-05-16T19:38:11.305Z,10.50
2019-05-16T19:40:40.529Z,10.50
2019-05-16T19:43:09.372Z,10.60
2019-05-16T19:45:38.009Z,10.60
2019-05-16T19:48:07.176Z,10.70
2019-05-16T19:50:37.300Z,10.50
2019-05-16T19:53:07.645Z,10.60
2019-05-16T19:55:36.544Z,10.50
2019-05-16T19:58:06.798Z,10.40
2019-05-16T20:00:37.377Z,10.50
2019-05-16T20:03:07.391Z,10.40
2019-05-16T20:05:37.237Z,10.30
2019-05-16T20:08:06.681Z,10.50
2019-05-16T20:10:36.740Z,10.60
2019-05-16T20:13:07.512Z,10.70
2019-05-16T20:15:36.690Z,10.70
2019-05-16T20:18:07.618Z,10.70
2019-05-16T20:20:37.165Z,10.70
2019-05-16T20:23:05.816Z,10.70
2019-05-16T20:25:36.263Z,10.60
2019-05-16T20:28:03.974Z,10.60
2019-05-16T20:30:32.233Z,10.60
2019-05-16T20:33:00.790Z,10.50
2019-05-16T20:35:28.924Z,10.40
2019-05-16T20:37:57.306Z,10.40
2019-05-16T20:40:26.579Z,10.40
2019-05-16T20:42:56.403Z,10.50
2019-05-16T20:45:27.087Z,10.70
2019-05-16T20:48:08.047Z,10.50
2019-05-16T20:50:26.260Z,10.50
2019-05-16T20:52:54.382Z,10.50
2019-05-16T20:55:22.517Z,10.50
2019-05-16T20:57:50.689Z,10.70
2019-05-16T21:00:19.234Z,10.70
2019-05-16T21:02:49.546Z,10.80
2019-05-16T21:05:19.406Z,10.90
2019-05-16T21:07:48.866Z,10.80
2019-05-16T21:10:18.122Z,10.70
2019-05-16T21:12:46.735Z,10.80
2019-05-16T21:15:17.118Z,10.80
2019-05-16T21:17:46.641Z,10.90
2019-05-16T21:20:17.631Z,11.00
2019-05-16T21:22:47.144Z,10.80
2019-05-16T21:25:16.926Z,10.90
2019-05-16T21:27:46.487Z,10.90
2019-05-16T21:30:16.416Z,10.90
2019-05-16T21:32:46.998Z,11.00
2019-05-16T21:35:15.529Z,11.10
2019-05-16T21:37:43.854Z,10.90
2019-05-16T21:40:12.844Z,10.90
2019-05-16T21:42:41.313Z,10.80
2019-05-16T21:45:09.917Z,10.80
2019-05-16T21:47:38.529Z,10.80
2019-05-16T21:50:07.533Z,10.80
2019-05-16T21:52:36.424Z,10.90
2019-05-16T21:55:06.954Z,10.60
2019-05-16T21:57:37.491Z,10.70
2019-05-16T22:00:11.589Z,10.60
2019-05-16T22:02:40.029Z,10.60
2019-05-16T22:05:08.169Z,10.60
2019-05-16T22:07:36.670Z,10.60
2019-05-16T22:10:06.402Z,10.70
2019-05-16T22:12:34.902Z,10.70
2019-05-16T22:15:06.244Z,10.50
2019-05-16T22:17:36.467Z,10.60
2019-05-16T22:20:03.529Z,10.60
2019-05-16T22:22:31.376Z,10.60
2019-05-16T22:24:58.559Z,10.50
2019-05-16T22:27:27.075Z,10.60
2019-05-16T22:29:56.801Z,10.40
2019-05-16T22:32:27.161Z,10.50
2019-05-16T22:34:59.530Z,10.70
2019-05-16T22:37:26.599Z,10.70
2019-05-16T22:39:59.345Z,10.80
2019-05-16T22:42:26.765Z,10.90
2019-05-16T22:44:55.296Z,10.80
2019-05-16T22:47:23.578Z,10.90
2019-05-16T22:49:51.765Z,10.90
2019-05-16T22:52:19.915Z,10.70
2019-05-16T22:54:48.074Z,10.60
2019-05-16T22:57:17.639Z,10.60
2019-05-16T22:59:45.940Z,10.60
2019-05-16T23:02:14.062Z,10.60
2019-05-16T23:04:42.389Z,10.70
2019-05-16T23:07:10.297Z,10.70
2019-05-16T23:09:38.390Z,10.60
2019-05-16T23:12:07.722Z,10.70
2019-05-16T23:14:35.798Z,10.70
2019-05-16T23:17:06.501Z,10.60
2019-05-16T23:19:36.658Z,10.60
2019-05-16T23:22:07.513Z,10.40
2019-05-16T23:24:36.982Z,10.30
2019-05-16T23:27:06.962Z,10.40
2019-05-16T23:29:36.785Z,10.50
2019-05-16T23:32:07.385Z,10.60
2019-05-16T23:34:37.336Z,10.70
2019-05-16T23:37:06.457Z,10.80
2019-05-16T23:39:34.646Z,10.60
2019-05-16T23:42:03.310Z,10.60
2019-05-16T23:44:31.212Z,10.40
2019-05-16T23:46:59.886Z,10.30
2019-05-16T23:49:28.116Z,10.40
2019-05-16T23:51:56.864Z,10.40
2019-05-16T23:54:25.016Z,10.40
2019-05-16T23:56:52.938Z,10.30
2019-05-16T23:59:20.891Z,10.30
